createdAt,value
2019-03-08T00:01:34.091Z,1.83
2019-03-08T00:04:04.664Z,1.60
2019-03-08T00:06:35.453Z,1.50
2019-03-08T00:09:09.054Z,1.60
2019-03-08T00:11:39.325Z,2.03
2019-03-08T00:14:10.098Z,1.80
2019-03-08T00:16:41.042Z,1.70
2019-03-08T00:19:11.891Z,1.57
2019-03-08T00:21:42.729Z,1.90
2019-03-08T00:24:13.459Z,1.60
2019-03-08T00:26:44.297Z,2.20
2019-03-08T00:29:15.033Z,2.13
2019-03-08T00:31:45.543Z,1.50
2019-03-08T00:34:16.401Z,1.97
2019-03-08T00:36:47.340Z,1.53
2019-03-08T00:39:18.159Z,1.73
2019-03-08T00:41:48.889Z,1.80
2019-03-08T00:44:19.733Z,1.90
2019-03-08T00:46:50.685Z,1.90
2019-03-08T00:49:21.639Z,1.67
2019-03-08T00:51:54.229Z,1.77
2019-03-08T00:54:24.728Z,1.90
2019-03-08T00:56:55.482Z,1.50
2019-03-08T00:59:26.403Z,1.60
2019-03-08T01:01:58.366Z,1.90
2019-03-08T01:04:29.306Z,1.90
2019-03-08T01:07:00.040Z,1.80
2019-03-08T01:09:30.959Z,1.80
2019-03-08T01:12:01.710Z,1.83
2019-03-08T01:14:32.545Z,2.10
2019-03-08T01:17:03.416Z,1.70
2019-03-08T01:19:34.230Z,1.97
2019-03-08T01:22:05.610Z,1.60
2019-03-08T01:24:36.118Z,1.90
2019-03-08T01:27:06.934Z,1.90
2019-03-08T01:29:37.780Z,1.63
2019-03-08T01:32:08.616Z,1.70
2019-03-08T01:34:39.345Z,1.67
2019-03-08T01:37:10.178Z,1.80
2019-03-08T01:39:41.013Z,1.80
2019-03-08T01:42:11.503Z,1.73
2019-03-08T01:44:42.288Z,1.80
2019-03-08T01:47:13.046Z,1.50
2019-03-08T01:49:43.850Z,2.00
2019-03-08T01:52:14.686Z,1.90
2019-03-08T01:54:45.529Z,2.10
2019-03-08T01:57:16.257Z,1.90
2019-03-08T01:59:47.087Z,2.03
2019-03-08T02:02:17.926Z,1.60
2019-03-08T02:04:48.810Z,1.90
2019-03-08T02:07:19.598Z,1.57
2019-03-08T02:09:50.398Z,1.63
2019-03-08T02:12:20.843Z,1.80
2019-03-08T02:14:51.698Z,2.03
2019-03-08T02:17:22.543Z,1.90
2019-03-08T02:19:53.483Z,2.13
2019-03-08T02:22:24.372Z,1.60
2019-03-08T02:24:55.154Z,2.10
2019-03-08T02:27:25.994Z,2.27
2019-03-08T02:29:56.831Z,1.90
2019-03-08T02:32:27.669Z,1.93
2019-03-08T02:34:58.403Z,1.70
2019-03-08T02:37:29.337Z,1.77
2019-03-08T02:40:00.269Z,1.90
2019-03-08T02:42:31.116Z,1.90
2019-03-08T02:45:01.971Z,1.93
2019-03-08T02:47:33.192Z,1.70
2019-03-08T02:50:04.448Z,1.80
2019-03-08T02:52:35.166Z,1.80
2019-03-08T02:55:07.870Z,1.80
2019-03-08T02:57:38.690Z,1.97
2019-03-08T03:00:15.388Z,1.73
2019-03-08T03:02:46.206Z,1.70
2019-03-08T03:05:17.042Z,1.80
2019-03-08T03:07:47.585Z,1.83
2019-03-08T03:10:18.405Z,1.80
2019-03-08T03:12:49.251Z,1.60
2019-03-08T03:15:20.102Z,2.20
2019-03-08T03:17:50.545Z,1.90
2019-03-08T03:20:21.203Z,1.50
2019-03-08T03:22:51.967Z,1.87
2019-03-08T03:25:22.831Z,1.60
2019-03-08T03:27:53.647Z,1.83
2019-03-08T03:30:24.479Z,1.70
2019-03-08T03:32:55.308Z,1.57
2019-03-08T03:35:26.158Z,1.70
2019-03-08T03:37:56.998Z,1.80
2019-03-08T03:40:27.499Z,1.60
2019-03-08T03:42:58.283Z,1.70
2019-03-08T03:45:29.094Z,1.47
2019-03-08T03:47:59.934Z,1.57
2019-03-08T03:50:30.777Z,1.60
2019-03-08T03:53:01.194Z,1.80
2019-03-08T03:55:32.033Z,1.70
2019-03-08T03:58:02.870Z,2.10
2019-03-08T04:00:33.299Z,1.80
2019-03-08T04:03:04.022Z,1.77
2019-03-08T04:05:34.980Z,1.60
2019-03-08T04:08:05.425Z,1.60
2019-03-08T04:10:36.131Z,2.00
2019-03-08T04:13:06.994Z,1.40
2019-03-08T04:15:37.795Z,1.60
2019-03-08T04:18:08.529Z,1.53
2019-03-08T04:20:39.791Z,1.60
2019-03-08T04:23:10.645Z,1.40
2019-03-08T04:25:41.358Z,1.70
2019-03-08T04:28:12.203Z,1.30
2019-03-08T04:30:44.677Z,1.40
2019-03-08T04:33:15.515Z,1.60
2019-03-08T04:35:45.989Z,1.80
2019-03-08T04:38:16.761Z,1.83
2019-03-08T04:40:47.618Z,1.40
2019-03-08T04:43:18.461Z,1.40
2019-03-08T04:45:49.281Z,1.60
2019-03-08T04:48:20.121Z,1.30
2019-03-08T04:50:51.003Z,1.47
2019-03-08T04:53:21.514Z,2.33
2019-03-08T04:55:52.433Z,2.20
2019-03-08T04:58:23.259Z,1.50
2019-03-08T05:00:53.993Z,1.60
2019-03-08T05:03:24.830Z,1.23
2019-03-08T05:05:55.663Z,1.50
2019-03-08T05:08:26.393Z,1.70
2019-03-08T05:10:57.147Z,1.20
2019-03-08T05:13:27.971Z,1.57
2019-03-08T05:15:58.791Z,1.60
2019-03-08T05:18:29.517Z,1.10
2019-03-08T05:21:00.385Z,1.30
2019-03-08T05:23:30.753Z,1.30
2019-03-08T05:26:01.587Z,1.63
2019-03-08T05:28:32.374Z,1.20
2019-03-08T05:31:03.238Z,1.20
2019-03-08T05:33:34.033Z,1.40
2019-03-08T05:36:04.786Z,1.47
2019-03-08T05:38:35.605Z,1.40
2019-03-08T05:41:06.450Z,1.60
2019-03-08T05:43:37.299Z,1.63
2019-03-08T05:46:07.971Z,1.30
2019-03-08T05:48:38.754Z,1.70
2019-03-08T05:51:09.489Z,1.57
2019-03-08T05:53:39.960Z,1.20
2019-03-08T05:56:10.642Z,1.40
2019-03-08T05:58:41.377Z,1.70
2019-03-08T06:01:12.124Z,1.60
2019-03-08T06:03:43.057Z,1.33
2019-03-08T06:06:13.901Z,1.20
2019-03-08T06:08:44.736Z,1.60
2019-03-08T06:11:15.459Z,1.57
2019-03-08T06:13:45.863Z,1.43
2019-03-08T06:16:16.523Z,1.50
2019-03-08T06:18:47.360Z,1.30
2019-03-08T06:21:18.022Z,1.63
2019-03-08T06:23:48.451Z,1.40
2019-03-08T06:26:19.361Z,1.50
2019-03-08T06:28:49.840Z,1.60
2019-03-08T06:31:20.313Z,1.70
2019-03-08T06:33:51.179Z,1.50
2019-03-08T06:36:22.327Z,1.77
2019-03-08T06:38:53.233Z,1.50
2019-03-08T06:41:24.003Z,1.10
2019-03-08T06:43:55.017Z,1.40
2019-03-08T06:46:25.887Z,1.40
2019-03-08T06:48:57.022Z,1.30
2019-03-08T06:51:27.772Z,1.73
2019-03-08T06:53:58.507Z,1.60
2019-03-08T06:56:30.752Z,1.50
2019-03-08T06:59:06.176Z,1.67
2019-03-08T07:01:37.038Z,1.70
2019-03-08T07:04:07.872Z,1.60
2019-03-08T07:06:38.689Z,1.57
2019-03-08T07:09:09.529Z,1.30
2019-03-08T07:11:40.389Z,1.50
2019-03-08T07:14:11.526Z,1.30
2019-03-08T07:16:42.368Z,1.77
2019-03-08T07:19:13.326Z,1.53
2019-03-08T07:21:45.766Z,2.10
2019-03-08T07:24:18.144Z,2.10
2019-03-08T07:27:05.554Z,1.50
2019-03-08T07:29:52.874Z,1.73
2019-03-08T07:32:37.555Z,1.60
2019-03-08T07:35:12.060Z,1.57
2019-03-08T07:38:00.977Z,1.57
2019-03-08T07:40:36.381Z,1.60
2019-03-08T07:43:11.901Z,1.67
2019-03-08T07:46:01.936Z,1.60
2019-03-08T07:48:51.077Z,2.00
2019-03-08T07:51:29.596Z,1.60
2019-03-08T07:54:04.951Z,1.63
2019-03-08T07:56:43.668Z,1.90
2019-03-08T07:59:22.709Z,5.00
2019-03-08T08:02:06.653Z,1.70
2019-03-08T08:04:47.923Z,1.60
2019-03-08T08:07:20.492Z,1.70
2019-03-08T08:10:13.968Z,2.20
2019-03-08T08:12:55.540Z,2.10
2019-03-08T08:15:45.495Z,2.40
2019-03-08T08:18:30.286Z,1.70
2019-03-08T08:21:14.642Z,1.80
2019-03-08T08:24:03.305Z,1.97
2019-03-08T08:26:35.792Z,2.03
2019-03-08T08:29:14.109Z,2.20
2019-03-08T08:31:46.552Z,2.40
2019-03-08T08:34:25.929Z,2.43
2019-03-08T08:36:59.798Z,2.30
2019-03-08T08:39:44.068Z,2.40
2019-03-08T08:42:31.144Z,2.30
2019-03-08T08:45:20.412Z,2.60
2019-03-08T08:48:05.664Z,2.70
2019-03-08T08:50:50.219Z,2.70
2019-03-08T08:53:34.739Z,3.43
2019-03-08T08:56:07.303Z,2.70
2019-03-08T08:58:39.790Z,3.00
2019-03-08T09:01:15.035Z,3.40
2019-03-08T09:03:47.671Z,2.67
2019-03-08T09:06:32.052Z,2.87
2019-03-08T09:09:22.551Z,3.20
2019-03-08T09:12:13.244Z,3.27
2019-03-08T09:14:54.877Z,3.23
2019-03-08T09:17:43.606Z,3.00
2019-03-08T09:20:22.166Z,3.23
2019-03-08T09:23:10.526Z,3.30
2019-03-08T09:25:58.309Z,2.90
2019-03-08T09:28:46.539Z,3.43
2019-03-08T09:31:25.233Z,3.20
2019-03-08T09:34:06.866Z,3.40
2019-03-08T09:36:42.003Z,4.00
2019-03-08T09:39:16.968Z,4.10
2019-03-08T09:42:05.600Z,4.20
2019-03-08T09:44:54.645Z,4.50
2019-03-08T09:47:27.016Z,4.50
2019-03-08T09:50:02.259Z,4.30
2019-03-08T09:52:40.467Z,4.13
2019-03-08T09:55:28.510Z,4.30
2019-03-08T09:58:03.945Z,4.80
2019-03-08T10:00:48.477Z,4.20
2019-03-08T10:03:26.922Z,4.63
2019-03-08T10:06:14.368Z,4.90
2019-03-08T10:08:46.840Z,4.97
2019-03-08T10:11:36.321Z,5.30
2019-03-08T10:14:14.931Z,5.87
2019-03-08T10:16:49.814Z,6.50
2019-03-08T10:19:22.464Z,5.93
2019-03-08T10:22:13.231Z,5.80
2019-03-08T10:24:45.408Z,5.63
2019-03-08T10:27:23.810Z,4.43
2019-03-08T10:29:56.422Z,3.90
2019-03-08T10:32:37.408Z,4.17
2019-03-08T10:35:06.870Z,4.30
2019-03-08T10:37:39.351Z,4.47
2019-03-08T10:40:28.961Z,3.63
2019-03-08T10:43:01.606Z,3.70
2019-03-08T10:45:34.495Z,3.60
2019-03-08T10:48:23.226Z,3.47
2019-03-08T10:51:07.222Z,3.40
2019-03-08T10:53:39.399Z,3.10
2019-03-08T10:56:17.906Z,2.30
2019-03-08T10:58:56.317Z,2.43
2019-03-08T11:01:34.019Z,2.47
2019-03-08T11:04:14.767Z,1.80
2019-03-08T11:06:58.693Z,2.53
2019-03-08T11:09:30.765Z,2.40
2019-03-08T11:12:03.384Z,2.57
2019-03-08T11:14:51.770Z,2.20
2019-03-08T11:17:31.260Z,4.03
2019-03-08T11:20:15.645Z,3.20
2019-03-08T11:22:59.968Z,2.27
2019-03-08T11:25:50.449Z,2.33
2019-03-08T11:28:39.311Z,2.87
2019-03-08T11:31:13.178Z,2.57
2019-03-08T11:33:45.574Z,2.30
2019-03-08T11:36:24.385Z,2.67
2019-03-08T11:39:06.853Z,2.93
2019-03-08T11:41:48.287Z,3.83
2019-03-08T11:44:29.468Z,2.37
2019-03-08T11:47:01.846Z,2.73
2019-03-08T11:49:42.455Z,3.70
2019-03-08T11:52:20.415Z,2.70
2019-03-08T11:54:52.899Z,3.40
2019-03-08T11:57:28.433Z,2.40
2019-03-08T12:00:09.925Z,3.10
2019-03-08T12:02:56.918Z,3.80
2019-03-08T12:05:38.625Z,3.70
2019-03-08T12:08:26.577Z,3.47
2019-03-08T12:11:25.368Z,6.23
2019-03-08T12:14:14.115Z,3.87
2019-03-08T12:16:58.690Z,4.40
2019-03-08T12:19:46.925Z,4.30
2019-03-08T12:22:19.403Z,3.40
2019-03-08T12:25:08.360Z,3.57
2019-03-08T12:27:56.087Z,3.20
2019-03-08T12:30:44.867Z,3.60
2019-03-08T12:33:17.328Z,5.10
2019-03-08T12:35:49.799Z,4.30
2019-03-08T12:38:34.239Z,3.00
2019-03-08T12:41:12.350Z,3.40
2019-03-08T12:43:45.159Z,3.60
2019-03-08T12:46:24.689Z,3.50
2019-03-08T12:49:01.561Z,3.20
2019-03-08T12:51:36.702Z,2.90
2019-03-08T12:54:09.832Z,2.90
2019-03-08T12:56:49.861Z,2.60
2019-03-08T12:59:38.406Z,2.60
2019-03-08T13:02:26.150Z,3.33
2019-03-08T13:05:13.887Z,3.30
2019-03-08T13:07:46.360Z,3.63
2019-03-08T13:10:17.239Z,3.10
2019-03-08T13:12:48.342Z,3.20
2019-03-08T13:15:19.183Z,3.07
2019-03-08T13:17:49.982Z,3.43
2019-03-08T13:20:20.846Z,3.10
2019-03-08T13:22:51.338Z,3.17
2019-03-08T13:25:22.525Z,3.53
2019-03-08T13:27:53.244Z,4.37
2019-03-08T13:30:25.402Z,3.77
2019-03-08T13:32:55.954Z,3.70
2019-03-08T13:35:26.798Z,3.73
2019-03-08T13:37:57.918Z,2.90
2019-03-08T13:40:28.681Z,3.20
2019-03-08T13:42:59.534Z,3.73
2019-03-08T13:45:30.328Z,3.07
2019-03-08T13:48:01.097Z,2.80
2019-03-08T13:50:32.074Z,2.27
2019-03-08T13:53:02.847Z,2.60
2019-03-08T13:55:33.592Z,2.67
2019-03-08T13:58:04.449Z,2.53
2019-03-08T14:00:35.355Z,3.33
2019-03-08T14:03:06.584Z,2.90
2019-03-08T14:05:37.419Z,2.97
2019-03-08T14:08:08.260Z,2.53
2019-03-08T14:10:39.204Z,3.10
2019-03-08T14:13:10.115Z,2.77
2019-03-08T14:15:41.320Z,2.80
2019-03-08T14:18:12.139Z,3.17
2019-03-08T14:20:44.701Z,2.70
2019-03-08T14:23:15.575Z,2.93
2019-03-08T14:25:46.161Z,2.70
2019-03-08T14:28:18.874Z,3.07
2019-03-08T14:30:57.722Z,2.30
2019-03-08T14:33:23.862Z,2.97
2019-03-08T14:35:54.463Z,3.20
2019-03-08T14:38:27.958Z,3.10
2019-03-08T14:40:59.490Z,3.10
2019-03-08T14:43:31.993Z,2.83
2019-03-08T14:46:10.070Z,3.07
2019-03-08T14:48:42.481Z,2.97
2019-03-08T14:51:13.873Z,3.07
2019-03-08T14:53:44.828Z,2.97
2019-03-08T14:56:15.656Z,2.83
2019-03-08T14:58:46.512Z,3.40
2019-03-08T15:01:17.468Z,2.60
2019-03-08T15:03:47.905Z,2.50
2019-03-08T15:06:18.702Z,2.67
2019-03-08T15:08:51.160Z,3.03
2019-03-08T15:11:23.530Z,3.10
2019-03-08T15:13:57.935Z,2.57
2019-03-08T15:16:27.171Z,2.27
2019-03-08T15:18:58.007Z,2.67
2019-03-08T15:21:28.856Z,2.17
2019-03-08T15:23:59.980Z,2.90
2019-03-08T15:26:30.817Z,2.60
2019-03-08T15:29:01.588Z,2.87
2019-03-08T15:31:32.061Z,2.70
2019-03-08T15:34:02.938Z,2.80
2019-03-08T15:36:33.766Z,2.60
2019-03-08T15:39:05.927Z,2.60
2019-03-08T15:41:36.777Z,3.00
2019-03-08T15:44:07.713Z,2.87
2019-03-08T15:46:38.548Z,3.20
2019-03-08T15:49:09.442Z,3.57
2019-03-08T15:51:40.330Z,2.90
2019-03-08T15:54:10.856Z,2.90
2019-03-08T15:56:41.632Z,3.13
2019-03-08T15:59:12.521Z,3.57
2019-03-08T16:01:43.258Z,2.97
2019-03-08T16:04:14.100Z,2.80
2019-03-08T16:06:45.471Z,4.27
2019-03-08T16:09:16.391Z,2.87
2019-03-08T16:11:47.216Z,3.43
2019-03-08T16:14:17.571Z,3.37
2019-03-08T16:16:48.996Z,3.33
2019-03-08T16:19:20.883Z,3.27
2019-03-08T16:21:52.415Z,3.00
2019-03-08T16:24:27.361Z,3.27
2019-03-08T16:26:58.706Z,3.30
2019-03-08T16:29:29.115Z,3.47
2019-03-08T16:32:04.157Z,4.10
2019-03-08T16:34:34.829Z,3.60
2019-03-08T16:37:09.529Z,3.43
2019-03-08T16:39:42.295Z,4.47
2019-03-08T16:42:14.963Z,3.40
2019-03-08T16:44:47.154Z,3.93
2019-03-08T16:47:28.593Z,4.03
2019-03-08T16:50:03.727Z,3.17
2019-03-08T16:52:45.080Z,4.40
2019-03-08T16:55:32.525Z,4.00
2019-03-08T16:58:05.591Z,4.27
2019-03-08T17:00:40.805Z,3.60
2019-03-08T17:03:13.290Z,3.70
2019-03-08T17:05:45.766Z,3.73
2019-03-08T17:08:18.719Z,3.60
2019-03-08T17:10:59.750Z,3.37
2019-03-08T17:13:32.177Z,3.23
2019-03-08T17:16:07.292Z,3.57
2019-03-08T17:18:48.614Z,3.60
2019-03-08T17:21:21.206Z,3.53
2019-03-08T17:23:53.777Z,3.40
2019-03-08T17:26:35.251Z,3.90
2019-03-08T17:29:16.782Z,3.63
2019-03-08T17:31:49.303Z,4.40
2019-03-08T17:34:36.929Z,4.27
2019-03-08T17:37:18.341Z,4.30
2019-03-08T17:39:56.559Z,5.30
2019-03-08T17:42:32.666Z,4.43
2019-03-08T17:45:13.982Z,3.73
2019-03-08T17:47:52.307Z,3.77
2019-03-08T17:50:24.883Z,3.43
2019-03-08T17:53:04.927Z,3.90
2019-03-08T17:55:43.220Z,3.63
2019-03-08T17:58:21.351Z,4.00
2019-03-08T18:00:56.587Z,4.23
2019-03-08T18:03:28.947Z,4.10
2019-03-08T18:06:18.324Z,3.83
2019-03-08T18:09:02.764Z,4.07
2019-03-08T18:11:40.731Z,4.03
2019-03-08T18:14:27.813Z,3.70
2019-03-08T18:17:16.144Z,4.37
2019-03-08T18:19:48.626Z,3.67
2019-03-08T18:22:21.107Z,5.37
2019-03-08T18:24:53.733Z,3.77
2019-03-08T18:27:44.099Z,4.47
2019-03-08T18:30:19.136Z,4.77
2019-03-08T18:32:54.247Z,4.47
2019-03-08T18:35:27.035Z,4.40
2019-03-08T18:38:04.919Z,4.10
2019-03-08T18:40:43.557Z,5.30
2019-03-08T18:43:21.859Z,5.27
2019-03-08T18:45:54.367Z,4.90
2019-03-08T18:48:26.550Z,4.47
2019-03-08T18:50:58.994Z,4.80
2019-03-08T18:53:48.373Z,4.60
2019-03-08T18:56:20.845Z,4.03
2019-03-08T18:59:05.186Z,3.90
2019-03-08T19:01:52.685Z,4.23
2019-03-08T19:04:25.196Z,7.77
2019-03-08T19:06:57.880Z,4.50
2019-03-08T19:09:48.375Z,4.53
2019-03-08T19:12:20.758Z,4.10
2019-03-08T19:15:00.477Z,4.73
2019-03-08T19:17:51.194Z,4.63
2019-03-08T19:20:23.669Z,4.30
2019-03-08T19:22:56.552Z,4.20
2019-03-08T19:25:29.114Z,3.80
2019-03-08T19:28:02.759Z,3.77
2019-03-08T19:30:44.091Z,4.33
2019-03-08T19:33:16.462Z,3.80
2019-03-08T19:35:54.157Z,3.90
2019-03-08T19:38:26.631Z,4.30
2019-03-08T19:40:59.277Z,4.60
2019-03-08T19:43:48.312Z,4.43
2019-03-08T19:46:32.654Z,4.10
2019-03-08T19:49:07.896Z,4.10
2019-03-08T19:51:40.375Z,4.27
2019-03-08T19:54:21.636Z,3.77
2019-03-08T19:57:09.265Z,4.10
2019-03-08T19:59:44.213Z,4.37
2019-03-08T20:02:19.148Z,3.87
2019-03-08T20:05:04.200Z,4.07
2019-03-08T20:07:51.540Z,4.40
2019-03-08T20:10:29.553Z,4.23
2019-03-08T20:13:08.007Z,4.10
2019-03-08T20:15:55.176Z,4.03
2019-03-08T20:18:27.746Z,4.67
2019-03-08T20:21:11.955Z,4.97
2019-03-08T20:23:46.931Z,4.63
2019-03-08T20:26:32.166Z,4.03
2019-03-08T20:29:11.347Z,4.00
2019-03-08T20:31:49.692Z,4.73
2019-03-08T20:34:22.855Z,4.23
2019-03-08T20:37:11.847Z,4.30
2019-03-08T20:40:02.582Z,4.60
2019-03-08T20:42:44.748Z,6.10
2019-03-08T20:45:38.025Z,4.43
2019-03-08T20:48:08.475Z,4.57
2019-03-08T20:50:40.881Z,4.33
2019-03-08T20:56:14.205Z,3.70
2019-03-08T20:58:50.823Z,4.47
2019-03-08T21:01:21.590Z,3.77
2019-03-08T21:03:52.496Z,3.97
2019-03-08T21:06:23.257Z,4.63
2019-03-08T21:09:05.346Z,3.60
2019-03-08T21:11:28.446Z,3.60
2019-03-08T21:14:00.674Z,4.40
2019-03-08T21:16:41.394Z,3.60
2019-03-08T21:19:15.770Z,4.57
2019-03-08T21:21:46.753Z,4.00
2019-03-08T21:24:17.554Z,4.00
2019-03-08T21:26:49.003Z,3.80
2019-03-08T21:29:22.826Z,4.00
2019-03-08T21:31:53.643Z,3.90
2019-03-08T21:34:24.713Z,3.53
2019-03-08T21:36:55.099Z,3.97
2019-03-08T21:39:30.526Z,3.70
2019-03-08T21:42:01.322Z,3.50
2019-03-08T21:44:32.263Z,3.80
2019-03-08T21:47:03.084Z,3.60
2019-03-08T21:49:34.035Z,4.23
2019-03-08T21:52:04.949Z,3.47
2019-03-08T21:54:35.356Z,3.33
2019-03-08T21:57:05.962Z,3.40
2019-03-08T21:59:36.744Z,3.63
2019-03-08T22:02:07.625Z,3.90
2019-03-08T22:04:40.319Z,3.53
2019-03-08T22:07:11.134Z,3.30
2019-03-08T22:09:43.675Z,3.43
2019-03-08T22:12:14.268Z,3.70
2019-03-08T22:14:45.226Z,3.93
2019-03-08T22:17:16.274Z,3.90
2019-03-08T22:19:47.354Z,3.50
2019-03-08T22:22:18.179Z,3.33
2019-03-08T22:24:48.991Z,3.30
2019-03-08T22:27:19.825Z,3.60
2019-03-08T22:29:50.555Z,3.50
2019-03-08T22:32:22.851Z,3.43
2019-03-08T22:34:53.286Z,3.50
2019-03-08T22:37:26.872Z,3.40
2019-03-08T22:39:57.764Z,3.20
2019-03-08T22:42:28.870Z,3.30
2019-03-08T22:44:59.620Z,3.80
2019-03-08T22:47:30.567Z,3.03
2019-03-08T22:50:01.466Z,3.40
2019-03-08T22:52:32.348Z,3.60
2019-03-08T22:55:03.213Z,2.77
2019-03-08T22:57:34.074Z,3.67
2019-03-08T23:00:07.883Z,3.40
2019-03-08T23:02:38.625Z,3.17
2019-03-08T23:05:09.854Z,2.80
2019-03-08T23:07:40.593Z,3.17
2019-03-08T23:10:11.922Z,3.30
2019-03-08T23:12:42.913Z,2.93
2019-03-08T23:15:13.624Z,3.43
2019-03-08T23:17:44.464Z,2.93
2019-03-08T23:20:15.301Z,3.30
2019-03-08T23:22:46.231Z,3.77
2019-03-08T23:25:16.954Z,3.80
2019-03-08T23:27:49.840Z,3.90
2019-03-08T23:30:22.320Z,3.57
2019-03-08T23:32:53.062Z,3.63
2019-03-08T23:35:23.786Z,4.47
2019-03-08T23:37:54.626Z,4.30
2019-03-08T23:40:25.460Z,4.20
2019-03-08T23:42:56.377Z,4.03
2019-03-08T23:45:27.138Z,4.13
2019-03-08T23:47:57.885Z,4.50
2019-03-08T23:50:28.550Z,4.67
2019-03-08T23:52:59.233Z,4.83
2019-03-08T23:55:29.973Z,4.50
2019-03-08T23:58:00.804Z,4.87
